createdAt,value
2023-12-20T00:01:24.947Z,12.05
2023-12-20T00:03:53.218Z,12.00
2023-12-20T00:06:21.432Z,11.98
2023-12-20T00:08:49.768Z,12.00
2023-12-20T00:11:17.817Z,12.60
2023-12-20T00:13:50.113Z,12.57
2023-12-20T00:16:20.265Z,11.45
2023-12-20T00:18:48.606Z,11.70
2023-12-20T00:21:16.854Z,11.52
2023-12-20T00:23:44.840Z,11.35
2023-12-20T00:26:12.894Z,11.30
2023-12-20T00:28:40.909Z,10.90
2023-12-20T00:31:10.378Z,10.97
2023-12-20T00:33:38.913Z,12.20
2023-12-20T00:36:07.710Z,11.90
2023-12-20T00:38:35.712Z,12.50
2023-12-20T00:41:04.720Z,12.90
2023-12-20T00:43:32.759Z,13.43
2023-12-20T00:46:01.195Z,15.38
2023-12-20T00:48:31.333Z,13.57
2023-12-20T00:50:59.701Z,13.65
2023-12-20T00:53:27.770Z,14.52
2023-12-20T00:55:55.882Z,13.70
2023-12-20T00:58:24.024Z,12.80
2023-12-20T01:00:52.283Z,11.93
2023-12-20T01:03:20.363Z,13.20
2023-12-20T01:05:49.817Z,12.40
2023-12-20T01:08:17.835Z,11.40
2023-12-20T01:10:45.996Z,10.40
2023-12-20T01:13:13.103Z,11.10
2023-12-20T01:15:41.213Z,9.35
2023-12-20T01:18:09.864Z,9.25
2023-12-20T01:20:38.254Z,8.77
2023-12-20T01:23:07.741Z,8.43
2023-12-20T01:25:35.794Z,6.90
2023-12-20T01:28:04.274Z,7.00
2023-12-20T01:30:32.534Z,6.80
2023-12-20T01:33:02.276Z,6.35
2023-12-20T01:35:30.293Z,6.32
2023-12-20T01:37:58.658Z,5.53
2023-12-20T01:40:28.180Z,4.40
2023-12-20T01:43:02.632Z,4.25
2023-12-20T01:45:30.703Z,4.00
2023-12-20T01:48:00.792Z,4.70
2023-12-20T01:50:30.397Z,5.00
2023-12-20T01:53:00.777Z,5.30
2023-12-20T01:55:32.841Z,4.95
2023-12-20T01:58:01.891Z,6.13
2023-12-20T02:00:31.188Z,5.63
2023-12-20T02:03:01.741Z,5.50
2023-12-20T02:05:31.840Z,6.00
2023-12-20T02:08:00.371Z,5.65
2023-12-20T02:10:30.422Z,6.00
2023-12-20T02:12:58.561Z,6.50
2023-12-20T02:15:26.777Z,5.85
2023-12-20T02:17:55.605Z,6.20
2023-12-20T02:20:23.624Z,6.50
2023-12-20T02:22:52.961Z,7.32
2023-12-20T02:25:21.294Z,5.85
2023-12-20T02:27:50.427Z,7.63
2023-12-20T02:30:18.704Z,6.72
2023-12-20T02:32:46.781Z,6.43
2023-12-20T02:35:14.995Z,6.60
2023-12-20T02:37:43.306Z,6.50
2023-12-20T02:40:13.210Z,6.70
2023-12-20T02:42:41.264Z,6.90
2023-12-20T02:45:10.138Z,7.78
2023-12-20T02:47:38.271Z,7.00
2023-12-20T02:50:06.787Z,6.63
2023-12-20T02:52:34.954Z,7.28
2023-12-20T02:55:03.011Z,5.70
2023-12-20T02:57:33.558Z,5.53
2023-12-20T03:00:01.680Z,5.87
2023-12-20T03:02:29.773Z,5.55
2023-12-20T03:04:57.851Z,5.80
2023-12-20T03:07:25.964Z,6.38
2023-12-20T03:10:06.339Z,6.53
2023-12-20T03:12:43.480Z,6.20
2023-12-20T03:15:12.296Z,5.68
2023-12-20T03:17:40.485Z,6.32
2023-12-20T03:20:10.476Z,6.30
2023-12-20T03:22:38.550Z,5.60
2023-12-20T03:25:07.116Z,5.65
2023-12-20T03:27:35.240Z,5.40
2023-12-20T03:30:05.242Z,5.57
2023-12-20T03:32:33.393Z,5.22
2023-12-20T03:35:01.525Z,5.72
2023-12-20T03:37:30.079Z,5.90
2023-12-20T03:39:58.176Z,5.47
2023-12-20T03:42:26.348Z,6.47
2023-12-20T03:44:54.383Z,6.07
2023-12-20T03:47:23.881Z,6.22
2023-12-20T03:49:52.030Z,6.03
2023-12-20T03:52:20.296Z,6.50
2023-12-20T03:54:48.765Z,7.13
2023-12-20T03:57:16.937Z,6.00
2023-12-20T03:59:44.955Z,6.10
2023-12-20T04:02:13.030Z,6.20
2023-12-20T04:04:43.306Z,5.63
2023-12-20T04:07:11.563Z,6.07
2023-12-20T04:09:39.844Z,6.00
2023-12-20T04:12:08.724Z,6.35
2023-12-20T04:14:36.811Z,6.60
2023-12-20T04:17:05.190Z,6.43
2023-12-20T04:19:33.388Z,6.78
2023-12-20T04:22:02.960Z,6.35
2023-12-20T04:24:31.097Z,5.70
2023-12-20T04:26:59.220Z,5.90
2023-12-20T04:29:27.318Z,5.88
2023-12-20T04:31:55.408Z,5.70
2023-12-20T04:34:25.351Z,5.10
2023-12-20T04:36:53.527Z,5.37
2023-12-20T04:39:22.959Z,4.80
2023-12-20T04:41:51.338Z,5.63
2023-12-20T04:44:19.460Z,5.35
2023-12-20T04:46:47.604Z,5.78
2023-12-20T04:49:15.724Z,5.80
2023-12-20T04:51:43.962Z,6.40
2023-12-20T04:54:12.193Z,6.70
2023-12-20T04:56:41.637Z,7.43
2023-12-20T04:59:09.767Z,6.67
2023-12-20T05:01:37.996Z,6.53
2023-12-20T05:04:06.396Z,7.28
2023-12-20T05:06:34.779Z,7.27
2023-12-20T05:09:03.035Z,7.40
2023-12-20T05:11:32.552Z,7.88
2023-12-20T05:14:02.060Z,7.35
2023-12-20T05:16:30.202Z,8.90
2023-12-20T05:18:59.727Z,8.10
2023-12-20T05:21:27.766Z,7.88
2023-12-20T05:23:55.859Z,7.97
2023-12-20T05:26:24.354Z,7.80
2023-12-20T05:28:52.415Z,7.80
2023-12-20T05:31:21.901Z,7.50
2023-12-20T05:33:50.076Z,7.60
2023-12-20T05:36:18.291Z,7.05
2023-12-20T05:38:46.399Z,6.40
2023-12-20T05:41:14.562Z,6.68
2023-12-20T05:43:42.908Z,7.20
2023-12-20T05:46:12.654Z,6.65
2023-12-20T05:48:42.249Z,7.20
2023-12-20T05:51:13.301Z,7.30
2023-12-20T05:53:41.512Z,7.63
2023-12-20T05:56:09.669Z,8.18
2023-12-20T05:58:37.896Z,7.75
2023-12-20T06:01:06.772Z,8.90
2023-12-20T06:03:34.999Z,8.48
2023-12-20T06:06:15.760Z,7.70
2023-12-20T06:08:45.510Z,8.73
2023-12-20T06:11:14.741Z,7.93
2023-12-20T06:13:42.981Z,8.40
2023-12-20T06:16:11.166Z,8.30
2023-12-20T06:18:39.528Z,7.63
2023-12-20T06:21:09.671Z,8.40
2023-12-20T06:23:38.075Z,7.57
2023-12-20T06:26:06.554Z,7.97
2023-12-20T06:28:34.673Z,8.10
2023-12-20T06:31:02.873Z,7.70
2023-12-20T06:33:32.071Z,8.20
2023-12-20T06:36:00.208Z,7.70
2023-12-20T06:38:29.658Z,8.02
2023-12-20T06:40:58.760Z,7.43
2023-12-20T06:45:59.797Z,7.85
2023-12-20T06:48:28.583Z,8.07
2023-12-20T06:50:56.729Z,8.90
2023-12-20T06:53:24.847Z,7.43
2023-12-20T06:55:54.305Z,8.25
2023-12-20T06:58:22.400Z,8.13
2023-12-20T07:00:50.787Z,7.68
2023-12-20T07:03:18.957Z,7.10
2023-12-20T07:05:47.134Z,7.55
2023-12-20T07:08:16.600Z,7.10
2023-12-20T07:10:44.754Z,7.28
2023-12-20T07:13:15.166Z,7.60
2023-12-20T07:15:44.933Z,7.22
2023-12-20T07:18:13.773Z,7.60
2023-12-20T07:20:41.918Z,6.55
2023-12-20T07:23:10.068Z,7.28
2023-12-20T07:25:38.198Z,7.60
2023-12-20T07:28:07.190Z,6.15
2023-12-20T07:30:36.877Z,7.05
2023-12-20T07:33:05.431Z,6.97
2023-12-20T07:35:33.622Z,7.07
2023-12-20T07:38:01.764Z,6.95
2023-12-20T07:40:29.892Z,7.25
2023-12-20T07:42:59.353Z,6.65
2023-12-20T07:45:27.575Z,7.18
2023-12-20T07:47:57.079Z,6.10
2023-12-20T07:50:25.275Z,6.90
2023-12-20T07:52:54.307Z,6.63
2023-12-20T07:55:22.402Z,7.40
2023-12-20T07:57:50.557Z,6.30
2023-12-20T08:00:19.510Z,6.68
2023-12-20T08:02:47.694Z,7.30
2023-12-20T08:05:18.666Z,6.53
2023-12-20T08:07:47.529Z,7.07
2023-12-20T08:10:15.912Z,6.82
2023-12-20T08:12:44.115Z,6.20
2023-12-20T08:15:12.597Z,6.32
2023-12-20T08:17:40.724Z,7.38
2023-12-20T08:20:10.222Z,6.95
2023-12-20T08:22:39.897Z,7.60
2023-12-20T08:25:08.842Z,7.40
2023-12-20T08:27:40.657Z,6.60
2023-12-20T08:30:11.563Z,6.90
2023-12-20T08:32:39.754Z,6.95
2023-12-20T08:35:08.526Z,6.57
2023-12-20T08:37:37.022Z,5.60
2023-12-20T08:40:08.172Z,5.93
2023-12-20T08:42:36.411Z,6.05
2023-12-20T08:45:07.232Z,5.82
2023-12-20T08:47:35.400Z,6.03
2023-12-20T08:50:04.827Z,6.30
2023-12-20T08:52:32.995Z,5.50
2023-12-20T08:55:01.480Z,6.03
2023-12-20T08:57:32.890Z,5.70
2023-12-20T09:00:00.952Z,6.10
2023-12-20T09:02:30.059Z,5.50
2023-12-20T09:04:58.764Z,6.32
2023-12-20T09:07:28.486Z,6.80
2023-12-20T09:09:57.052Z,5.55
2023-12-20T09:12:25.241Z,6.57
2023-12-20T09:14:55.218Z,5.50
2023-12-20T09:17:24.120Z,5.30
2023-12-20T09:19:53.712Z,5.57
2023-12-20T09:22:22.034Z,5.60
2023-12-20T09:24:50.305Z,4.88
2023-12-20T09:27:18.421Z,5.97
2023-12-20T09:29:46.512Z,5.97
2023-12-20T09:32:15.948Z,6.15
2023-12-20T09:34:44.125Z,5.38
2023-12-20T09:37:11.338Z,5.80
2023-12-20T09:39:39.694Z,6.32
2023-12-20T09:42:08.990Z,5.40
2023-12-20T09:44:37.442Z,5.38
2023-12-20T09:47:06.659Z,4.85
2023-12-20T09:49:37.552Z,4.85
2023-12-20T09:52:09.831Z,5.60
2023-12-20T09:54:38.047Z,5.00
2023-12-20T09:57:06.944Z,4.90
2023-12-20T09:59:35.415Z,5.10
2023-12-20T10:02:06.046Z,5.45
2023-12-20T10:04:37.043Z,5.00
2023-12-20T10:07:07.383Z,5.30
2023-12-20T10:09:36.705Z,4.70
2023-12-20T10:12:06.541Z,4.50
2023-12-20T10:14:35.094Z,4.50
2023-12-20T10:17:07.245Z,5.00
2023-12-20T10:19:36.771Z,4.90
2023-12-20T10:22:07.404Z,4.10
2023-12-20T10:24:35.564Z,4.90
2023-12-20T10:27:05.942Z,5.00
2023-12-20T10:29:37.841Z,4.90
2023-12-20T10:32:26.751Z,4.78
2023-12-20T10:34:57.702Z,4.85
2023-12-20T10:37:26.135Z,4.20
2023-12-20T10:39:57.540Z,5.10
2023-12-20T10:42:28.600Z,4.75
2023-12-20T10:44:57.029Z,4.70
2023-12-20T10:47:27.032Z,4.68
2023-12-20T10:49:57.956Z,5.55
2023-12-20T10:52:26.816Z,4.72
2023-12-20T10:54:55.211Z,5.60
2023-12-20T10:57:24.408Z,4.82
2023-12-20T10:59:55.844Z,5.43
2023-12-20T11:02:23.518Z,4.97
2023-12-20T11:04:59.041Z,5.30
2023-12-20T11:07:34.507Z,5.53
2023-12-20T11:10:19.022Z,5.78
2023-12-20T11:12:54.555Z,5.78
2023-12-20T11:15:23.261Z,5.70
2023-12-20T11:17:57.629Z,5.15
2023-12-20T11:20:38.060Z,5.40
2023-12-20T11:23:06.361Z,5.60
2023-12-20T11:25:53.807Z,5.50
2023-12-20T11:28:24.127Z,6.05
2023-12-20T11:30:54.050Z,5.72
2023-12-20T11:33:28.854Z,4.97
2023-12-20T11:36:01.267Z,5.05
2023-12-20T11:38:29.543Z,5.43
2023-12-20T11:40:58.684Z,4.85
2023-12-20T11:43:33.903Z,5.50
2023-12-20T11:46:07.253Z,5.30
2023-12-20T11:48:37.591Z,4.90
2023-12-20T11:51:11.449Z,5.97
2023-12-20T11:53:39.788Z,5.13
2023-12-20T11:56:09.130Z,4.25
2023-12-20T11:58:37.598Z,4.45
2023-12-20T12:01:08.617Z,4.32
2023-12-20T12:03:37.150Z,4.07
2023-12-20T12:06:07.339Z,4.70
2023-12-20T12:08:35.619Z,4.45
2023-12-20T12:11:03.939Z,5.00
2023-12-20T12:13:32.356Z,5.15
2023-12-20T12:16:01.591Z,5.00
2023-12-20T12:18:30.092Z,5.35
2023-12-20T12:21:08.187Z,5.30
2023-12-20T12:23:39.858Z,5.43
2023-12-20T12:26:10.193Z,6.20
2023-12-20T12:28:38.366Z,5.93
2023-12-20T12:31:06.607Z,6.20
2023-12-20T12:33:35.046Z,6.57
2023-12-20T12:36:04.965Z,6.50
2023-12-20T12:38:33.094Z,7.05
2023-12-20T12:41:02.805Z,6.50
2023-12-20T12:43:31.477Z,6.93
2023-12-20T12:46:00.418Z,6.40
2023-12-20T12:48:29.218Z,6.03
2023-12-20T12:51:00.757Z,6.03
2023-12-20T12:53:28.871Z,5.80
2023-12-20T12:55:57.141Z,6.10
2023-12-20T12:58:27.320Z,6.35
2023-12-20T13:00:56.257Z,6.13
2023-12-20T13:03:25.314Z,6.72
2023-12-20T13:05:53.589Z,6.47
2023-12-20T13:08:21.690Z,6.97
2023-12-20T13:10:50.516Z,7.63
2023-12-20T13:13:18.951Z,6.88
2023-12-20T13:15:52.678Z,7.10
2023-12-20T13:18:21.030Z,6.53
2023-12-20T13:20:49.489Z,6.28
2023-12-20T13:23:19.259Z,6.18
2023-12-20T13:25:47.805Z,6.15
2023-12-20T13:28:16.201Z,6.10
2023-12-20T13:30:44.463Z,6.13
2023-12-20T13:33:13.984Z,6.15
2023-12-20T13:35:42.126Z,6.18
2023-12-20T13:38:10.252Z,6.10
2023-12-20T13:40:38.735Z,6.50
2023-12-20T13:43:07.150Z,6.03
2023-12-20T13:45:35.366Z,5.90
2023-12-20T13:48:03.735Z,5.90
2023-12-20T13:50:33.350Z,6.40
2023-12-20T13:53:02.021Z,6.17
2023-12-20T13:55:30.418Z,6.10
2023-12-20T13:57:58.881Z,6.40
2023-12-20T14:00:27.296Z,6.50
2023-12-20T14:02:55.776Z,6.18
2023-12-20T14:05:28.054Z,6.77
2023-12-20T14:07:59.652Z,6.10
2023-12-20T14:10:28.396Z,7.10
2023-12-20T14:12:57.204Z,6.88
2023-12-20T14:15:26.563Z,6.65
2023-12-20T14:17:55.877Z,6.53
2023-12-20T14:20:24.428Z,7.30
2023-12-20T14:22:52.622Z,6.60
2023-12-20T14:25:24.690Z,6.82
2023-12-20T14:27:53.020Z,5.82
2023-12-20T14:30:21.415Z,6.15
2023-12-20T14:32:49.892Z,6.50
2023-12-20T14:35:18.592Z,6.80
2023-12-20T14:37:46.899Z,7.35
2023-12-20T14:40:17.876Z,7.78
2023-12-20T14:42:48.122Z,7.50
2023-12-20T14:45:17.689Z,10.68
2023-12-20T14:47:46.474Z,8.50
2023-12-20T14:50:20.278Z,8.10
2023-12-20T14:52:48.936Z,8.48
2023-12-20T14:55:18.191Z,8.07
2023-12-20T14:57:48.107Z,8.60
2023-12-20T15:00:20.824Z,8.48
2023-12-20T15:02:49.040Z,7.55
2023-12-20T15:05:18.583Z,7.95
2023-12-20T15:07:48.194Z,8.20
2023-12-20T15:10:18.032Z,8.70
2023-12-20T15:12:47.769Z,8.30
2023-12-20T15:15:16.368Z,7.80
2023-12-20T15:17:44.750Z,7.45
2023-12-20T15:20:13.708Z,8.02
2023-12-20T15:22:42.502Z,8.05
2023-12-20T15:25:11.181Z,8.80
2023-12-20T15:27:39.519Z,8.40
2023-12-20T15:30:11.227Z,8.15
2023-12-20T15:32:41.406Z,8.60
2023-12-20T15:35:10.430Z,8.50
2023-12-20T15:37:40.461Z,9.30
2023-12-20T15:40:11.062Z,8.90
2023-12-20T15:42:39.790Z,9.32
2023-12-20T15:45:10.428Z,9.30
2023-12-20T15:47:38.536Z,9.20
2023-12-20T15:50:08.950Z,9.80
2023-12-20T15:52:38.956Z,9.88
2023-12-20T15:55:08.706Z,9.65
2023-12-20T15:57:45.442Z,8.65
2023-12-20T16:00:22.144Z,8.85
2023-12-20T16:02:50.827Z,8.90
2023-12-20T16:05:19.286Z,9.77
2023-12-20T16:07:48.399Z,8.82
2023-12-20T16:10:16.817Z,7.90
2023-12-20T16:12:44.902Z,8.27
2023-12-20T16:15:12.977Z,8.27
2023-12-20T16:17:42.692Z,7.93
2023-12-20T16:20:11.502Z,7.70
2023-12-20T16:22:39.800Z,8.43
2023-12-20T16:25:09.475Z,8.05
2023-12-20T16:27:37.517Z,8.00
2023-12-20T16:30:06.660Z,7.00
2023-12-20T16:32:35.184Z,7.90
2023-12-20T16:35:06.133Z,6.85
2023-12-20T16:37:38.582Z,7.95
2023-12-20T16:40:07.505Z,7.50
2023-12-20T16:42:35.641Z,7.47
2023-12-20T16:45:04.871Z,8.10
2023-12-20T16:47:32.982Z,7.63
2023-12-20T16:50:03.343Z,8.70
2023-12-20T16:52:33.994Z,8.40
2023-12-20T16:55:02.438Z,8.10
2023-12-20T16:57:30.642Z,8.60
2023-12-20T16:59:58.793Z,8.13
2023-12-20T17:02:26.956Z,8.25
2023-12-20T17:04:55.198Z,7.40
2023-12-20T17:07:23.365Z,7.93
2023-12-20T17:09:53.609Z,7.72
2023-12-20T17:12:21.698Z,7.45
2023-12-20T17:14:49.762Z,7.38
2023-12-20T17:17:17.862Z,7.40
2023-12-20T17:19:46.076Z,8.20
2023-12-20T17:22:14.320Z,8.13
2023-12-20T17:24:42.451Z,8.40
2023-12-20T17:27:12.423Z,8.82
2023-12-20T17:29:40.586Z,8.70
2023-12-20T17:32:08.716Z,8.57
2023-12-20T17:34:37.870Z,8.50
2023-12-20T17:37:06.435Z,9.30
2023-12-20T17:39:34.538Z,8.93
2023-12-20T17:42:02.884Z,9.60
2023-12-20T17:44:32.323Z,8.80
2023-12-20T17:47:00.924Z,9.60
2023-12-20T17:49:30.114Z,9.43
2023-12-20T17:51:58.382Z,9.15
2023-12-20T17:54:26.921Z,8.88
2023-12-20T17:56:55.476Z,10.07
2023-12-20T17:59:23.644Z,9.70
2023-12-20T18:01:53.131Z,10.13
2023-12-20T18:04:21.861Z,9.60
2023-12-20T18:06:51.121Z,10.20
2023-12-20T18:09:19.331Z,10.00
2023-12-20T18:11:47.651Z,9.52
2023-12-20T18:14:15.745Z,12.15
2023-12-20T18:16:44.019Z,11.73
2023-12-20T18:19:13.835Z,9.57
2023-12-20T18:21:41.957Z,9.97
2023-12-20T18:24:11.434Z,9.57
2023-12-20T18:26:40.404Z,9.82
2023-12-20T18:29:08.835Z,8.82
2023-12-20T18:31:36.992Z,8.80
2023-12-20T18:34:07.388Z,8.93
2023-12-20T18:36:37.622Z,9.07
2023-12-20T18:39:06.340Z,8.88
2023-12-20T18:41:34.500Z,9.00
2023-12-20T18:44:02.731Z,8.30
2023-12-20T18:46:30.803Z,8.30
2023-12-20T18:48:59.189Z,8.63
2023-12-20T18:51:27.434Z,8.25
2023-12-20T18:53:57.044Z,8.88
2023-12-20T18:56:25.132Z,9.10
2023-12-20T18:58:53.190Z,8.95
2023-12-20T19:01:21.572Z,8.70
2023-12-20T19:03:50.339Z,9.63
2023-12-20T19:06:18.581Z,9.53
2023-12-20T19:08:50.940Z,9.15
2023-12-20T19:11:20.661Z,9.90
2023-12-20T19:13:48.764Z,9.60
2023-12-20T19:16:17.052Z,9.38
2023-12-20T19:18:45.245Z,9.68
2023-12-20T19:21:13.368Z,8.73
2023-12-20T19:23:44.150Z,9.40
2023-12-20T19:26:13.395Z,9.18
2023-12-20T19:28:45.217Z,9.90
2023-12-20T19:31:13.859Z,10.05
2023-12-20T19:33:42.682Z,10.20
2023-12-20T19:36:15.105Z,9.50
2023-12-20T19:38:44.369Z,9.47
2023-12-20T19:41:12.622Z,8.95
2023-12-20T19:43:42.180Z,9.13
2023-12-20T19:46:12.319Z,8.77
2023-12-20T19:48:40.511Z,8.75
2023-12-20T19:51:09.113Z,8.50
2023-12-20T19:53:37.542Z,8.30
2023-12-20T19:56:06.189Z,9.50
2023-12-20T19:58:34.441Z,8.27
2023-12-20T20:01:04.165Z,8.20
2023-12-20T20:03:32.322Z,7.70
2023-12-20T20:06:00.543Z,8.40
2023-12-20T20:08:28.759Z,8.27
2023-12-20T20:10:56.827Z,8.10
2023-12-20T20:13:24.939Z,8.50
2023-12-20T20:15:53.084Z,8.10
2023-12-20T20:18:22.576Z,8.80
2023-12-20T20:20:50.773Z,9.32
2023-12-20T20:23:18.829Z,8.25
2023-12-20T20:25:47.962Z,9.20
2023-12-20T20:28:17.429Z,8.93
2023-12-20T20:30:45.589Z,8.85
2023-12-20T20:33:13.860Z,7.80
2023-12-20T20:35:43.539Z,8.00
2023-12-20T20:38:11.599Z,8.20
2023-12-20T20:40:39.818Z,7.45
2023-12-20T20:43:08.124Z,8.00
2023-12-20T20:45:36.200Z,7.38
2023-12-20T20:48:15.995Z,7.20
2023-12-20T20:50:55.569Z,7.30
2023-12-20T20:53:24.484Z,6.43
2023-12-20T20:55:52.540Z,7.20
2023-12-20T20:58:20.768Z,6.90
2023-12-20T21:00:49.181Z,6.68
2023-12-20T21:03:17.381Z,6.53
2023-12-20T21:05:45.543Z,5.40
2023-12-20T21:08:15.999Z,6.28
2023-12-20T21:10:45.196Z,6.70
2023-12-20T21:13:13.653Z,6.40
2023-12-20T21:15:41.770Z,6.60
2023-12-20T21:18:11.417Z,9.63
2023-12-20T21:20:40.354Z,8.93
2023-12-20T21:23:10.236Z,8.80
2023-12-20T21:25:39.953Z,6.50
2023-12-20T21:28:08.372Z,6.75
2023-12-20T21:30:38.581Z,5.85
2023-12-20T21:33:07.187Z,6.32
2023-12-20T21:35:36.015Z,6.20
2023-12-20T21:38:04.892Z,6.50
2023-12-20T21:40:33.215Z,6.20
2023-12-20T21:43:03.410Z,6.55
2023-12-20T21:45:31.643Z,6.50
2023-12-20T21:47:59.797Z,5.57
2023-12-20T21:50:28.090Z,5.90
2023-12-20T21:52:56.240Z,5.90
2023-12-20T21:55:24.449Z,5.90
2023-12-20T21:57:52.573Z,5.80
2023-12-20T22:00:22.552Z,5.28
2023-12-20T22:02:50.633Z,5.45
2023-12-20T22:05:19.016Z,4.90
2023-12-20T22:07:47.470Z,4.82
2023-12-20T22:10:16.007Z,4.70
2023-12-20T22:12:44.195Z,5.30
2023-12-20T22:15:14.067Z,4.78
2023-12-20T22:17:43.769Z,4.80
2023-12-20T22:20:13.193Z,4.85
2023-12-20T22:22:41.858Z,5.20
2023-12-20T22:25:10.405Z,5.13
2023-12-20T22:27:38.662Z,5.40
2023-12-20T22:30:09.817Z,5.40
2023-12-20T22:32:39.195Z,5.47
2023-12-20T22:35:09.573Z,5.93
2023-12-20T22:37:37.986Z,5.80
2023-12-20T22:40:07.235Z,6.10
2023-12-20T22:42:35.376Z,6.20
2023-12-20T22:45:03.492Z,5.60
2023-12-20T22:47:31.622Z,5.40
2023-12-20T22:49:59.870Z,6.70
2023-12-20T22:52:29.552Z,6.20
2023-12-20T22:54:57.940Z,6.68
2023-12-20T22:57:26.546Z,6.20
2023-12-20T22:59:54.870Z,6.57
2023-12-20T23:02:22.935Z,5.97
2023-12-20T23:04:51.171Z,7.20
2023-12-20T23:07:19.451Z,6.65
2023-12-20T23:09:48.959Z,6.90
2023-12-20T23:12:17.042Z,6.85
2023-12-20T23:14:45.203Z,7.15
2023-12-20T23:17:13.314Z,6.50
2023-12-20T23:19:42.243Z,6.15
2023-12-20T23:22:10.537Z,6.00
2023-12-20T23:24:38.649Z,6.50
2023-12-20T23:27:08.344Z,6.47
2023-12-20T23:29:36.457Z,6.10
2023-12-20T23:32:04.846Z,6.47
2023-12-20T23:34:32.959Z,6.70
2023-12-20T23:37:01.331Z,6.20
2023-12-20T23:39:29.474Z,6.20
2023-12-20T23:41:57.651Z,6.60
2023-12-20T23:44:27.157Z,6.20
2023-12-20T23:46:55.252Z,6.22
2023-12-20T23:49:24.522Z,5.95
2023-12-20T23:51:53.285Z,6.60
2023-12-20T23:54:21.404Z,6.40
2023-12-20T23:56:49.707Z,5.47
2023-12-20T23:59:19.747Z,5.60
